sensor_id;sensor_type;location;lat;lon;timestamp;P1;durP1;ratioP1;P2;durP2;ratioP2
616;SDS011;295;51.628;7.520;2022-10-16T00:01:49;13.17;;;6.90;;
616;SDS011;295;51.628;7.520;2022-10-16T00:04:38;9.33;;;5.80;;
616;SDS011;295;51.628;7.520;2022-10-16T00:07:27;10.67;;;7.00;;
616;SDS011;295;51.628;7.520;2022-10-16T00:10:16;9.83;;;6.60;;
616;SDS011;295;51.628;7.520;2022-10-16T00:13:05;7.20;;;6.50;;
616;SDS011;295;51.628;7.520;2022-10-16T00:15:54;13.27;;;7.20;;
616;SDS011;295;51.628;7.520;2022-10-16T00:18:45;7.90;;;6.27;;
616;SDS011;295;51.628;7.520;2022-10-16T00:21:34;8.73;;;6.90;;
616;SDS011;295;51.628;7.520;2022-10-16T00:24:22;8.47;;;7.10;;
616;SDS011;295;51.628;7.520;2022-10-16T00:27:11;6.27;;;5.70;;
616;SDS011;295;51.628;7.520;2022-10-16T00:30:00;6.20;;;5.60;;
616;SDS011;295;51.628;7.520;2022-10-16T00:32:50;8.83;;;6.20;;
616;SDS011;295;51.628;7.520;2022-10-16T00:35:40;7.07;;;6.37;;
616;SDS011;295;51.628;7.520;2022-10-16T00:38:29;6.90;;;5.70;;
616;SDS011;295;51.628;7.520;2022-10-16T00:41:18;5.00;;;4.53;;
616;SDS011;295;51.628;7.520;2022-10-16T00:47:11;9.30;;;6.90;;
616;SDS011;295;51.628;7.520;2022-10-16T00:50:02;6.87;;;5.87;;
616;SDS011;295;51.628;7.520;2022-10-16T00:53:01;8.50;;;6.70;;
616;SDS011;295;51.628;7.520;2022-10-16T00:55:50;7.50;;;5.70;;
616;SDS011;295;51.628;7.520;2022-10-16T00:58:39;8.63;;;5.00;;
616;SDS011;295;51.628;7.520;2022-10-16T01:01:28;8.10;;;7.07;;
616;SDS011;295;51.628;7.520;2022-10-16T01:04:17;9.33;;;5.93;;
616;SDS011;295;51.628;7.520;2022-10-16T01:07:09;8.80;;;6.00;;
616;SDS011;295;51.628;7.520;2022-10-16T01:10:04;9.43;;;6.30;;
616;SDS011;295;51.628;7.520;2022-10-16T01:12:58;7.10;;;5.80;;
616;SDS011;295;51.628;7.520;2022-10-16T01:15:48;5.30;;;4.80;;
616;SDS011;295;51.628;7.520;2022-10-16T01:18:42;9.27;;;6.40;;
616;SDS011;295;51.628;7.520;2022-10-16T01:21:33;7.10;;;5.53;;
616;SDS011;295;51.628;7.520;2022-10-16T01:24:27;11.77;;;5.03;;
616;SDS011;295;51.628;7.520;2022-10-16T01:27:19;7.93;;;5.23;;
616;SDS011;295;51.628;7.520;2022-10-16T01:30:12;4.30;;;3.90;;
616;SDS011;295;51.628;7.520;2022-10-16T01:33:02;3.57;;;3.27;;
616;SDS011;295;51.628;7.520;2022-10-16T01:35:52;2.73;;;2.47;;
616;SDS011;295;51.628;7.520;2022-10-16T01:38:43;3.30;;;2.60;;
616;SDS011;295;51.628;7.520;2022-10-16T01:41:33;4.67;;;3.30;;
616;SDS011;295;51.628;7.520;2022-10-16T01:44:25;4.13;;;3.43;;
616;SDS011;295;51.628;7.520;2022-10-16T01:47:15;5.23;;;4.00;;
616;SDS011;295;51.628;7.520;2022-10-16T01:50:06;4.87;;;4.40;;
616;SDS011;295;51.628;7.520;2022-10-16T01:52:56;6.93;;;4.53;;
616;SDS011;295;51.628;7.520;2022-10-16T01:55:46;6.17;;;4.70;;
616;SDS011;295;51.628;7.520;2022-10-16T01:58:37;7.00;;;5.17;;
616;SDS011;295;51.628;7.520;2022-10-16T02:01:30;5.40;;;4.90;;
616;SDS011;295;51.628;7.520;2022-10-16T02:04:20;4.83;;;4.33;;
616;SDS011;295;51.628;7.520;2022-10-16T02:07:10;4.40;;;3.80;;
616;SDS011;295;51.628;7.520;2022-10-16T02:09:59;5.13;;;3.80;;
616;SDS011;295;51.628;7.520;2022-10-16T02:12:49;3.90;;;2.90;;
616;SDS011;295;51.628;7.520;2022-10-16T02:15:39;6.13;;;3.27;;
616;SDS011;295;51.628;7.520;2022-10-16T02:18:29;4.13;;;3.30;;
616;SDS011;295;51.628;7.520;2022-10-16T02:21:19;4.37;;;3.60;;
616;SDS011;295;51.628;7.520;2022-10-16T02:24:12;4.90;;;3.30;;
616;SDS011;295;51.628;7.520;2022-10-16T02:27:05;5.33;;;3.23;;
616;SDS011;295;51.628;7.520;2022-10-16T02:29:59;3.43;;;2.60;;
616;SDS011;295;51.628;7.520;2022-10-16T02:32:54;3.50;;;3.20;;
616;SDS011;295;51.628;7.520;2022-10-16T02:35:46;4.73;;;3.53;;
616;SDS011;295;51.628;7.520;2022-10-16T02:38:36;4.10;;;3.57;;
616;SDS011;295;51.628;7.520;2022-10-16T02:41:25;6.47;;;4.00;;
616;SDS011;295;51.628;7.520;2022-10-16T02:44:14;4.90;;;4.40;;
616;SDS011;295;51.628;7.520;2022-10-16T02:47:03;4.30;;;3.10;;
616;SDS011;295;51.628;7.520;2022-10-16T02:49:52;3.60;;;3.20;;
616;SDS011;295;51.628;7.520;2022-10-16T02:52:43;3.23;;;2.97;;
616;SDS011;295;51.628;7.520;2022-10-16T02:55:31;4.23;;;2.40;;
616;SDS011;295;51.628;7.520;2022-10-16T02:58:20;6.07;;;3.23;;
616;SDS011;295;51.628;7.520;2022-10-16T03:01:09;4.43;;;2.70;;
616;SDS011;295;51.628;7.520;2022-10-16T03:03:59;3.73;;;2.63;;
616;SDS011;295;51.628;7.520;2022-10-16T03:06:48;3.13;;;2.20;;
616;SDS011;295;51.628;7.520;2022-10-16T03:09:39;4.87;;;2.77;;
616;SDS011;295;51.628;7.520;2022-10-16T03:12:28;3.67;;;2.63;;
616;SDS011;295;51.628;7.520;2022-10-16T03:15:17;3.37;;;2.37;;
616;SDS011;295;51.628;7.520;2022-10-16T03:18:06;4.57;;;2.33;;
616;SDS011;295;51.628;7.520;2022-10-16T03:20:55;3.93;;;1.70;;
616;SDS011;295;51.628;7.520;2022-10-16T03:23:43;2.70;;;1.90;;
616;SDS011;295;51.628;7.520;2022-10-16T03:26:34;6.30;;;2.20;;
616;SDS011;295;51.628;7.520;2022-10-16T03:29:23;3.20;;;2.03;;
616;SDS011;295;51.628;7.520;2022-10-16T03:32:12;1.80;;;1.50;;
616;SDS011;295;51.628;7.520;2022-10-16T03:35:01;2.70;;;2.20;;
616;SDS011;295;51.628;7.520;2022-10-16T03:37:50;2.37;;;1.90;;
616;SDS011;295;51.628;7.520;2022-10-16T03:40:39;2.70;;;1.93;;
616;SDS011;295;51.628;7.520;2022-10-16T03:43:30;2.10;;;1.90;;
616;SDS011;295;51.628;7.520;2022-10-16T03:46:19;4.20;;;2.20;;
616;SDS011;295;51.628;7.520;2022-10-16T03:49:07;2.10;;;1.90;;
616;SDS011;295;51.628;7.520;2022-10-16T03:51:56;2.70;;;2.03;;
616;SDS011;295;51.628;7.520;2022-10-16T03:54:45;9.70;;;2.33;;
616;SDS011;295;51.628;7.520;2022-10-16T03:57:34;3.10;;;2.00;;
616;SDS011;295;51.628;7.520;2022-10-16T04:00:24;2.20;;;2.00;;
616;SDS011;295;51.628;7.520;2022-10-16T04:03:13;3.83;;;2.30;;
616;SDS011;295;51.628;7.520;2022-10-16T04:06:02;2.17;;;2.00;;
616;SDS011;295;51.628;7.520;2022-10-16T04:08:51;5.00;;;2.17;;
616;SDS011;295;51.628;7.520;2022-10-16T04:11:40;2.90;;;2.47;;
616;SDS011;295;51.628;7.520;2022-10-16T04:14:28;2.33;;;2.13;;
616;SDS011;295;51.628;7.520;2022-10-16T04:17:19;2.43;;;2.23;;
616;SDS011;295;51.628;7.520;2022-10-16T04:20:08;4.67;;;2.33;;
616;SDS011;295;51.628;7.520;2022-10-16T04:22:57;2.40;;;1.77;;
616;SDS011;295;51.628;7.520;2022-10-16T04:25:46;3.00;;;2.17;;
616;SDS011;295;51.628;7.520;2022-10-16T04:28:35;4.10;;;2.50;;
616;SDS011;295;51.628;7.520;2022-10-16T04:31:24;3.20;;;2.40;;
616;SDS011;295;51.628;7.520;2022-10-16T04:34:14;3.50;;;2.27;;
616;SDS011;295;51.628;7.520;2022-10-16T04:37:03;3.70;;;2.10;;
616;SDS011;295;51.628;7.520;2022-10-16T04:39:52;2.17;;;1.60;;
616;SDS011;295;51.628;7.520;2022-10-16T04:42:41;4.97;;;3.03;;
616;SDS011;295;51.628;7.520;2022-10-16T04:45:30;2.53;;;1.90;;
616;SDS011;295;51.628;7.520;2022-10-16T04:48:19;1.83;;;1.73;;
616;SDS011;295;51.628;7.520;2022-10-16T04:51:09;2.90;;;1.40;;
616;SDS011;295;51.628;7.520;2022-10-16T04:53:58;1.70;;;1.37;;
616;SDS011;295;51.628;7.520;2022-10-16T04:56:47;1.57;;;1.47;;
616;SDS011;295;51.628;7.520;2022-10-16T04:59:37;1.60;;;1.47;;
616;SDS011;295;51.628;7.520;2022-10-16T05:02:26;1.73;;;1.33;;
616;SDS011;295;51.628;7.520;2022-10-16T05:05:15;1.80;;;1.43;;
616;SDS011;295;51.628;7.520;2022-10-16T05:08:07;2.07;;;1.67;;
616;SDS011;295;51.628;7.520;2022-10-16T05:10:56;1.50;;;1.40;;
616;SDS011;295;51.628;7.520;2022-10-16T05:13:45;2.20;;;2.00;;
616;SDS011;295;51.628;7.520;2022-10-16T05:16:38;2.20;;;1.90;;
616;SDS011;295;51.628;7.520;2022-10-16T05:19:26;2.80;;;1.80;;
616;SDS011;295;51.628;7.520;2022-10-16T05:22:15;2.33;;;1.37;;
616;SDS011;295;51.628;7.520;2022-10-16T05:25:06;4.40;;;1.63;;
616;SDS011;295;51.628;7.520;2022-10-16T05:27:55;2.30;;;1.63;;
616;SDS011;295;51.628;7.520;2022-10-16T05:30:44;2.07;;;1.80;;
616;SDS011;295;51.628;7.520;2022-10-16T05:33:33;5.17;;;1.60;;
616;SDS011;295;51.628;7.520;2022-10-16T05:36:22;1.43;;;1.33;;
616;SDS011;295;51.628;7.520;2022-10-16T05:39:11;2.63;;;1.47;;
616;SDS011;295;51.628;7.520;2022-10-16T05:42:01;1.73;;;1.33;;
616;SDS011;295;51.628;7.520;2022-10-16T05:44:50;4.30;;;2.10;;
616;SDS011;295;51.628;7.520;2022-10-16T05:47:39;2.40;;;1.40;;
616;SDS011;295;51.628;7.520;2022-10-16T05:50:28;2.20;;;1.30;;
616;SDS011;295;51.628;7.520;2022-10-16T05:53:17;1.67;;;1.10;;
616;SDS011;295;51.628;7.520;2022-10-16T05:56:12;1.80;;;1.53;;
616;SDS011;295;51.628;7.520;2022-10-16T05:59:02;1.67;;;1.37;;
616;SDS011;295;51.628;7.520;2022-10-16T06:01:51;1.40;;;1.30;;
616;SDS011;295;51.628;7.520;2022-10-16T06:04:40;2.37;;;1.57;;
616;SDS011;295;51.628;7.520;2022-10-16T06:07:33;3.60;;;1.87;;
616;SDS011;295;51.628;7.520;2022-10-16T06:10:22;2.07;;;1.67;;
616;SDS011;295;51.628;7.520;2022-10-16T06:13:10;2.37;;;2.17;;
616;SDS011;295;51.628;7.520;2022-10-16T06:16:01;1.97;;;1.77;;
616;SDS011;295;51.628;7.520;2022-10-16T06:18:50;1.57;;;1.40;;
616;SDS011;295;51.628;7.520;2022-10-16T06:21:39;4.90;;;1.37;;
616;SDS011;295;51.628;7.520;2022-10-16T06:24:28;3.67;;;1.30;;
616;SDS011;295;51.628;7.520;2022-10-16T06:27:17;2.27;;;1.47;;
616;SDS011;295;51.628;7.520;2022-10-16T06:30:06;2.20;;;1.73;;
616;SDS011;295;51.628;7.520;2022-10-16T06:32:56;1.70;;;1.60;;
616;SDS011;295;51.628;7.520;2022-10-16T06:35:45;1.30;;;1.20;;
616;SDS011;295;51.628;7.520;2022-10-16T06:38:34;1.50;;;1.40;;
616;SDS011;295;51.628;7.520;2022-10-16T06:41:23;1.60;;;1.43;;
616;SDS011;295;51.628;7.520;2022-10-16T06:44:12;2.03;;;1.30;;
616;SDS011;295;51.628;7.520;2022-10-16T06:47:01;3.20;;;1.20;;
616;SDS011;295;51.628;7.520;2022-10-16T06:49:51;2.43;;;1.47;;
616;SDS011;295;51.628;7.520;2022-10-16T06:52:40;1.40;;;1.17;;
616;SDS011;295;51.628;7.520;2022-10-16T06:55:29;1.47;;;1.10;;
616;SDS011;295;51.628;7.520;2022-10-16T06:58:18;2.50;;;1.40;;
616;SDS011;295;51.628;7.520;2022-10-16T07:01:07;2.57;;;1.37;;
616;SDS011;295;51.628;7.520;2022-10-16T07:03:56;2.60;;;1.17;;
616;SDS011;295;51.628;7.520;2022-10-16T07:06:46;2.27;;;1.57;;
616;SDS011;295;51.628;7.520;2022-10-16T07:09:35;1.47;;;1.37;;
616;SDS011;295;51.628;7.520;2022-10-16T07:12:24;5.30;;;1.70;;
616;SDS011;295;51.628;7.520;2022-10-16T07:15:13;1.87;;;1.50;;
616;SDS011;295;51.628;7.520;2022-10-16T07:18:02;1.40;;;1.20;;
616;SDS011;295;51.628;7.520;2022-10-16T07:20:51;1.43;;;1.17;;
616;SDS011;295;51.628;7.520;2022-10-16T07:23:42;1.67;;;1.30;;
616;SDS011;295;51.628;7.520;2022-10-16T07:26:32;3.43;;;1.27;;
616;SDS011;295;51.628;7.520;2022-10-16T07:29:21;1.13;;;1.03;;
616;SDS011;295;51.628;7.520;2022-10-16T07:32:10;1.30;;;1.00;;
616;SDS011;295;51.628;7.520;2022-10-16T07:34:59;1.70;;;1.50;;
616;SDS011;295;51.628;7.520;2022-10-16T07:37:47;2.43;;;1.40;;
616;SDS011;295;51.628;7.520;2022-10-16T07:40:38;2.50;;;1.40;;
616;SDS011;295;51.628;7.520;2022-10-16T07:43:27;4.47;;;1.67;;
616;SDS011;295;51.628;7.520;2022-10-16T07:46:16;2.30;;;1.77;;
616;SDS011;295;51.628;7.520;2022-10-16T07:49:05;2.60;;;1.10;;
616;SDS011;295;51.628;7.520;2022-10-16T07:51:54;2.03;;;1.30;;
616;SDS011;295;51.628;7.520;2022-10-16T07:54:43;1.40;;;1.23;;
616;SDS011;295;51.628;7.520;2022-10-16T07:57:33;1.80;;;0.90;;
616;SDS011;295;51.628;7.520;2022-10-16T08:00:22;2.50;;;1.60;;
616;SDS011;295;51.628;7.520;2022-10-16T08:03:11;1.43;;;1.00;;
616;SDS011;295;51.628;7.520;2022-10-16T08:06:00;1.90;;;1.33;;
616;SDS011;295;51.628;7.520;2022-10-16T08:08:49;3.10;;;1.00;;
616;SDS011;295;51.628;7.520;2022-10-16T08:11:38;1.67;;;1.40;;
616;SDS011;295;51.628;7.520;2022-10-16T08:14:28;1.80;;;1.50;;
616;SDS011;295;51.628;7.520;2022-10-16T08:17:17;1.40;;;1.23;;
616;SDS011;295;51.628;7.520;2022-10-16T08:20:06;2.83;;;1.45;;
616;SDS011;295;51.628;7.520;2022-10-16T08:22:55;1.25;;;0.95;;
616;SDS011;295;51.628;7.520;2022-10-16T08:25:44;2.20;;;1.20;;
616;SDS011;295;51.628;7.520;2022-10-16T08:28:33;1.58;;;1.35;;
616;SDS011;295;51.628;7.520;2022-10-16T08:31:24;1.73;;;1.10;;
616;SDS011;295;51.628;7.520;2022-10-16T08:34:14;2.55;;;1.23;;
616;SDS011;295;51.628;7.520;2022-10-16T08:37:02;1.40;;;1.05;;
616;SDS011;295;51.628;7.520;2022-10-16T08:39:51;2.40;;;1.52;;
616;SDS011;295;51.628;7.520;2022-10-16T08:42:44;3.05;;;1.00;;
616;SDS011;295;51.628;7.520;2022-10-16T08:45:39;1.98;;;1.10;;
616;SDS011;295;51.628;7.520;2022-10-16T08:48:33;3.35;;;1.05;;
616;SDS011;295;51.628;7.520;2022-10-16T08:51:25;2.20;;;1.17;;
616;SDS011;295;51.628;7.520;2022-10-16T08:54:19;2.88;;;1.20;;
616;SDS011;295;51.628;7.520;2022-10-16T08:57:11;3.97;;;1.48;;
616;SDS011;295;51.628;7.520;2022-10-16T09:00:09;2.05;;;1.30;;
616;SDS011;295;51.628;7.520;2022-10-16T09:03:03;1.92;;;1.00;;
616;SDS011;295;51.628;7.520;2022-10-16T09:06:00;1.65;;;1.00;;
616;SDS011;295;51.628;7.520;2022-10-16T09:08:54;1.95;;;1.27;;
616;SDS011;295;51.628;7.520;2022-10-16T09:11:48;1.73;;;1.00;;
616;SDS011;295;51.628;7.520;2022-10-16T09:14:45;2.47;;;0.90;;
616;SDS011;295;51.628;7.520;2022-10-16T09:17:38;3.72;;;1.60;;
616;SDS011;295;51.628;7.520;2022-10-16T09:20:33;2.75;;;1.08;;
616;SDS011;295;51.628;7.520;2022-10-16T09:23:25;1.60;;;1.20;;
616;SDS011;295;51.628;7.520;2022-10-16T09:26:14;6.18;;;1.98;;
616;SDS011;295;51.628;7.520;2022-10-16T09:29:04;5.03;;;1.65;;
616;SDS011;295;51.628;7.520;2022-10-16T09:31:54;3.00;;;1.85;;
616;SDS011;295;51.628;7.520;2022-10-16T09:34:45;1.80;;;1.10;;
616;SDS011;295;51.628;7.520;2022-10-16T09:37:35;4.72;;;1.13;;
616;SDS011;295;51.628;7.520;2022-10-16T09:40:26;3.20;;;1.58;;
616;SDS011;295;51.628;7.520;2022-10-16T09:43:20;2.25;;;1.50;;
616;SDS011;295;51.628;7.520;2022-10-16T09:46:20;1.63;;;1.13;;
616;SDS011;295;51.628;7.520;2022-10-16T09:49:18;2.80;;;1.27;;
616;SDS011;295;51.628;7.520;2022-10-16T09:52:11;2.83;;;1.25;;
616;SDS011;295;51.628;7.520;2022-10-16T09:55:02;3.22;;;1.75;;
616;SDS011;295;51.628;7.520;2022-10-16T09:57:53;2.85;;;1.63;;
616;SDS011;295;51.628;7.520;2022-10-16T10:00:48;2.20;;;1.25;;
616;SDS011;295;51.628;7.520;2022-10-16T10:03:37;2.38;;;1.10;;
616;SDS011;295;51.628;7.520;2022-10-16T10:06:28;2.83;;;1.35;;
616;SDS011;295;51.628;7.520;2022-10-16T10:09:19;3.30;;;1.45;;
616;SDS011;295;51.628;7.520;2022-10-16T10:12:15;3.45;;;1.30;;
616;SDS011;295;51.628;7.520;2022-10-16T10:15:13;4.38;;;1.60;;
616;SDS011;295;51.628;7.520;2022-10-16T10:18:15;3.17;;;1.40;;
616;SDS011;295;51.628;7.520;2022-10-16T10:21:05;1.48;;;1.00;;
616;SDS011;295;51.628;7.520;2022-10-16T10:23:58;3.97;;;1.45;;
616;SDS011;295;51.628;7.520;2022-10-16T10:26:49;3.17;;;1.30;;
616;SDS011;295;51.628;7.520;2022-10-16T10:29:43;2.05;;;0.93;;
616;SDS011;295;51.628;7.520;2022-10-16T10:32:37;2.80;;;1.33;;
616;SDS011;295;51.628;7.520;2022-10-16T10:35:28;2.08;;;1.00;;
616;SDS011;295;51.628;7.520;2022-10-16T10:38:25;2.17;;;1.13;;
616;SDS011;295;51.628;7.520;2022-10-16T10:44:29;1.58;;;0.80;;
616;SDS011;295;51.628;7.520;2022-10-16T10:47:22;2.10;;;1.13;;
616;SDS011;295;51.628;7.520;2022-10-16T10:50:17;4.28;;;1.02;;
616;SDS011;295;51.628;7.520;2022-10-16T10:53:22;2.00;;;1.10;;
616;SDS011;295;51.628;7.520;2022-10-16T10:56:15;4.97;;;2.08;;
616;SDS011;295;51.628;7.520;2022-10-16T10:59:08;4.78;;;1.48;;
616;SDS011;295;51.628;7.520;2022-10-16T11:02:04;2.95;;;1.02;;
616;SDS011;295;51.628;7.520;2022-10-16T11:05:18;3.85;;;1.30;;
616;SDS011;295;51.628;7.520;2022-10-16T11:08:10;2.33;;;1.15;;
616;SDS011;295;51.628;7.520;2022-10-16T11:11:00;3.25;;;1.20;;
616;SDS011;295;51.628;7.520;2022-10-16T11:13:52;2.92;;;1.33;;
616;SDS011;295;51.628;7.520;2022-10-16T11:16:43;1.58;;;0.93;;
616;SDS011;295;51.628;7.520;2022-10-16T11:19:36;1.45;;;1.10;;
616;SDS011;295;51.628;7.520;2022-10-16T11:22:30;2.38;;;0.80;;
616;SDS011;295;51.628;7.520;2022-10-16T11:25:21;5.32;;;1.25;;
616;SDS011;295;51.628;7.520;2022-10-16T11:28:11;4.22;;;2.25;;
616;SDS011;295;51.628;7.520;2022-10-16T11:31:03;2.05;;;0.90;;
616;SDS011;295;51.628;7.520;2022-10-16T11:33:58;1.38;;;1.00;;
616;SDS011;295;51.628;7.520;2022-10-16T11:36:56;3.42;;;1.48;;
616;SDS011;295;51.628;7.520;2022-10-16T11:39:47;1.52;;;0.73;;
616;SDS011;295;51.628;7.520;2022-10-16T11:42:37;1.48;;;0.80;;
616;SDS011;295;51.628;7.520;2022-10-16T11:45:29;2.95;;;1.55;;
616;SDS011;295;51.628;7.520;2022-10-16T11:48:22;2.10;;;1.70;;
616;SDS011;295;51.628;7.520;2022-10-16T11:51:14;3.80;;;1.35;;
616;SDS011;295;51.628;7.520;2022-10-16T11:54:05;3.75;;;1.45;;
616;SDS011;295;51.628;7.520;2022-10-16T11:56:59;4.03;;;1.25;;
616;SDS011;295;51.628;7.520;2022-10-16T11:59:51;1.70;;;0.80;;
616;SDS011;295;51.628;7.520;2022-10-16T12:02:45;2.28;;;1.30;;
616;SDS011;295;51.628;7.520;2022-10-16T12:05:43;2.25;;;1.20;;
616;SDS011;295;51.628;7.520;2022-10-16T12:08:38;2.03;;;1.35;;
616;SDS011;295;51.628;7.520;2022-10-16T12:11:32;1.83;;;1.20;;
616;SDS011;295;51.628;7.520;2022-10-16T12:14:33;2.13;;;1.30;;
616;SDS011;295;51.628;7.520;2022-10-16T12:17:34;1.73;;;0.98;;
616;SDS011;295;51.628;7.520;2022-10-16T12:20:25;4.40;;;1.10;;
616;SDS011;295;51.628;7.520;2022-10-16T12:23:16;1.40;;;1.00;;
616;SDS011;295;51.628;7.520;2022-10-16T12:26:08;2.45;;;1.33;;
616;SDS011;295;51.628;7.520;2022-10-16T12:29:09;3.35;;;1.40;;
616;SDS011;295;51.628;7.520;2022-10-16T12:32:01;5.38;;;1.20;;
616;SDS011;295;51.628;7.520;2022-10-16T12:34:50;3.65;;;1.20;;
616;SDS011;295;51.628;7.520;2022-10-16T12:37:39;2.13;;;1.08;;
616;SDS011;295;51.628;7.520;2022-10-16T12:40:29;1.40;;;0.90;;
616;SDS011;295;51.628;7.520;2022-10-16T12:43:34;1.65;;;1.08;;
616;SDS011;295;51.628;7.520;2022-10-16T12:46:33;4.53;;;1.20;;
616;SDS011;295;51.628;7.520;2022-10-16T12:49:30;4.07;;;1.27;;
616;SDS011;295;51.628;7.520;2022-10-16T12:52:27;5.95;;;1.42;;
616;SDS011;295;51.628;7.520;2022-10-16T12:55:16;2.95;;;1.40;;
616;SDS011;295;51.628;7.520;2022-10-16T12:58:09;2.35;;;0.80;;
616;SDS011;295;51.628;7.520;2022-10-16T13:01:03;1.67;;;1.05;;
616;SDS011;295;51.628;7.520;2022-10-16T13:07:10;2.10;;;1.00;;
616;SDS011;295;51.628;7.520;2022-10-16T13:10:07;1.77;;;0.93;;
616;SDS011;295;51.628;7.520;2022-10-16T13:13:25;3.22;;;0.77;;
616;SDS011;295;51.628;7.520;2022-10-16T13:16:22;1.67;;;0.80;;
616;SDS011;295;51.628;7.520;2022-10-16T13:19:17;2.10;;;0.80;;
616;SDS011;295;51.628;7.520;2022-10-16T13:22:11;2.42;;;1.00;;
616;SDS011;295;51.628;7.520;2022-10-16T13:25:08;2.95;;;1.40;;
616;SDS011;295;51.628;7.520;2022-10-16T13:28:02;2.65;;;1.15;;
616;SDS011;295;51.628;7.520;2022-10-16T13:30:52;1.33;;;0.80;;
616;SDS011;295;51.628;7.520;2022-10-16T13:33:42;2.03;;;1.00;;
616;SDS011;295;51.628;7.520;2022-10-16T13:36:35;1.85;;;0.90;;
616;SDS011;295;51.628;7.520;2022-10-16T13:39:26;2.10;;;1.10;;
616;SDS011;295;51.628;7.520;2022-10-16T13:42:17;1.73;;;1.10;;
616;SDS011;295;51.628;7.520;2022-10-16T13:45:19;2.35;;;0.90;;
616;SDS011;295;51.628;7.520;2022-10-16T13:48:09;1.90;;;0.95;;
616;SDS011;295;51.628;7.520;2022-10-16T13:51:03;2.28;;;0.90;;
616;SDS011;295;51.628;7.520;2022-10-16T13:53:52;2.28;;;0.95;;
616;SDS011;295;51.628;7.520;2022-10-16T13:56:42;2.65;;;1.00;;
616;SDS011;295;51.628;7.520;2022-10-16T13:59:32;2.75;;;0.80;;
616;SDS011;295;51.628;7.520;2022-10-16T14:02:22;4.45;;;1.48;;
616;SDS011;295;51.628;7.520;2022-10-16T14:05:13;3.10;;;1.00;;
616;SDS011;295;51.628;7.520;2022-10-16T14:08:02;1.88;;;1.00;;
616;SDS011;295;51.628;7.520;2022-10-16T14:10:52;2.42;;;1.20;;
616;SDS011;295;51.628;7.520;2022-10-16T14:13:44;1.70;;;1.25;;
616;SDS011;295;51.628;7.520;2022-10-16T14:16:33;2.08;;;1.10;;
616;SDS011;295;51.628;7.520;2022-10-16T14:19:24;2.40;;;1.45;;
616;SDS011;295;51.628;7.520;2022-10-16T14:22:21;1.33;;;1.05;;
616;SDS011;295;51.628;7.520;2022-10-16T14:25:25;2.38;;;1.30;;
616;SDS011;295;51.628;7.520;2022-10-16T14:28:15;1.20;;;0.80;;
616;SDS011;295;51.628;7.520;2022-10-16T14:31:19;1.88;;;1.30;;
616;SDS011;295;51.628;7.520;2022-10-16T14:34:24;1.60;;;0.70;;
616;SDS011;295;51.628;7.520;2022-10-16T14:37:14;2.75;;;1.40;;
616;SDS011;295;51.628;7.520;2022-10-16T14:40:13;2.08;;;0.90;;
616;SDS011;295;51.628;7.520;2022-10-16T14:43:03;2.10;;;0.65;;
616;SDS011;295;51.628;7.520;2022-10-16T14:45:53;2.50;;;0.90;;
616;SDS011;295;51.628;7.520;2022-10-16T14:48:45;2.03;;;0.82;;
616;SDS011;295;51.628;7.520;2022-10-16T14:51:35;1.83;;;0.82;;
616;SDS011;295;51.628;7.520;2022-10-16T14:54:24;2.22;;;1.50;;
616;SDS011;295;51.628;7.520;2022-10-16T14:57:15;2.80;;;1.00;;
616;SDS011;295;51.628;7.520;2022-10-16T15:00:08;1.30;;;0.80;;
616;SDS011;295;51.628;7.520;2022-10-16T15:02:59;1.23;;;0.63;;
616;SDS011;295;51.628;7.520;2022-10-16T15:05:49;0.97;;;0.60;;
616;SDS011;295;51.628;7.520;2022-10-16T15:08:38;3.73;;;0.80;;
616;SDS011;295;51.628;7.520;2022-10-16T15:11:27;1.17;;;0.60;;
616;SDS011;295;51.628;7.520;2022-10-16T15:14:16;1.87;;;0.90;;
616;SDS011;295;51.628;7.520;2022-10-16T15:17:05;1.73;;;0.90;;
616;SDS011;295;51.628;7.520;2022-10-16T15:19:54;2.10;;;1.23;;
616;SDS011;295;51.628;7.520;2022-10-16T15:22:46;1.10;;;0.70;;
616;SDS011;295;51.628;7.520;2022-10-16T15:25:36;2.90;;;1.10;;
616;SDS011;295;51.628;7.520;2022-10-16T15:28:27;1.53;;;0.80;;
616;SDS011;295;51.628;7.520;2022-10-16T15:31:16;1.83;;;0.70;;
616;SDS011;295;51.628;7.520;2022-10-16T15:34:05;1.60;;;0.70;;
616;SDS011;295;51.628;7.520;2022-10-16T15:36:54;2.50;;;1.00;;
616;SDS011;295;51.628;7.520;2022-10-16T15:39:46;3.53;;;0.80;;
616;SDS011;295;51.628;7.520;2022-10-16T15:42:34;1.10;;;0.77;;
616;SDS011;295;51.628;7.520;2022-10-16T15:45:23;1.47;;;1.20;;
616;SDS011;295;51.628;7.520;2022-10-16T15:48:12;4.20;;;1.50;;
616;SDS011;295;51.628;7.520;2022-10-16T15:51:02;1.73;;;0.97;;
616;SDS011;295;51.628;7.520;2022-10-16T15:53:53;1.40;;;0.80;;
616;SDS011;295;51.628;7.520;2022-10-16T15:56:43;1.30;;;0.73;;
616;SDS011;295;51.628;7.520;2022-10-16T15:59:32;3.40;;;1.23;;
616;SDS011;295;51.628;7.520;2022-10-16T16:02:21;3.07;;;1.23;;
616;SDS011;295;51.628;7.520;2022-10-16T16:05:11;2.37;;;1.43;;
616;SDS011;295;51.628;7.520;2022-10-16T16:08:00;3.63;;;1.07;;
616;SDS011;295;51.628;7.520;2022-10-16T16:10:56;1.93;;;1.07;;
616;SDS011;295;51.628;7.520;2022-10-16T16:13:47;2.33;;;0.90;;
616;SDS011;295;51.628;7.520;2022-10-16T16:16:36;2.80;;;1.10;;
616;SDS011;295;51.628;7.520;2022-10-16T16:19:24;4.03;;;1.27;;
616;SDS011;295;51.628;7.520;2022-10-16T16:22:13;1.40;;;1.00;;
616;SDS011;295;51.628;7.520;2022-10-16T16:25:02;2.07;;;1.33;;
616;SDS011;295;51.628;7.520;2022-10-16T16:27:51;2.40;;;1.63;;
616;SDS011;295;51.628;7.520;2022-10-16T16:30:42;2.30;;;1.60;;
616;SDS011;295;51.628;7.520;2022-10-16T16:33:31;1.57;;;1.40;;
616;SDS011;295;51.628;7.520;2022-10-16T16:36:20;12.27;;;1.97;;
616;SDS011;295;51.628;7.520;2022-10-16T16:39:09;7.20;;;1.80;;
616;SDS011;295;51.628;7.520;2022-10-16T16:41:58;2.60;;;1.57;;
616;SDS011;295;51.628;7.520;2022-10-16T16:44:49;2.57;;;1.53;;
616;SDS011;295;51.628;7.520;2022-10-16T16:47:39;3.73;;;1.80;;
616;SDS011;295;51.628;7.520;2022-10-16T16:50:28;2.83;;;1.10;;
616;SDS011;295;51.628;7.520;2022-10-16T16:53:17;4.50;;;1.63;;
616;SDS011;295;51.628;7.520;2022-10-16T16:56:06;2.30;;;1.33;;
616;SDS011;295;51.628;7.520;2022-10-16T16:58:55;2.33;;;1.97;;
616;SDS011;295;51.628;7.520;2022-10-16T17:01:45;2.60;;;1.53;;
616;SDS011;295;51.628;7.520;2022-10-16T17:04:40;2.90;;;1.80;;
616;SDS011;295;51.628;7.520;2022-10-16T17:07:31;2.30;;;1.57;;
616;SDS011;295;51.628;7.520;2022-10-16T17:10:21;5.43;;;1.63;;
616;SDS011;295;51.628;7.520;2022-10-16T17:13:10;2.07;;;1.37;;
616;SDS011;295;51.628;7.520;2022-10-16T17:15:58;4.63;;;2.07;;
616;SDS011;295;51.628;7.520;2022-10-16T17:18:47;4.67;;;1.50;;
616;SDS011;295;51.628;7.520;2022-10-16T17:21:38;4.40;;;1.80;;
616;SDS011;295;51.628;7.520;2022-10-16T17:24:27;4.20;;;1.50;;
616;SDS011;295;51.628;7.520;2022-10-16T17:27:16;1.83;;;1.20;;
616;SDS011;295;51.628;7.520;2022-10-16T17:30:05;9.00;;;1.80;;
616;SDS011;295;51.628;7.520;2022-10-16T17:32:54;3.70;;;1.80;;
616;SDS011;295;51.628;7.520;2022-10-16T17:35:43;3.20;;;1.50;;
616;SDS011;295;51.628;7.520;2022-10-16T17:38:34;4.37;;;2.00;;
616;SDS011;295;51.628;7.520;2022-10-16T17:41:23;3.30;;;1.57;;
616;SDS011;295;51.628;7.520;2022-10-16T17:44:12;2.90;;;1.73;;
616;SDS011;295;51.628;7.520;2022-10-16T17:47:05;6.70;;;2.73;;
616;SDS011;295;51.628;7.520;2022-10-16T17:49:54;3.10;;;1.87;;
616;SDS011;295;51.628;7.520;2022-10-16T17:52:44;2.90;;;2.20;;
616;SDS011;295;51.628;7.520;2022-10-16T17:55:37;3.13;;;2.23;;
616;SDS011;295;51.628;7.520;2022-10-16T17:58:26;4.40;;;1.93;;
616;SDS011;295;51.628;7.520;2022-10-16T18:01:21;3.70;;;1.60;;
616;SDS011;295;51.628;7.520;2022-10-16T18:04:11;3.07;;;2.50;;
616;SDS011;295;51.628;7.520;2022-10-16T18:07:01;5.30;;;2.50;;
616;SDS011;295;51.628;7.520;2022-10-16T18:09:50;4.60;;;2.13;;
616;SDS011;295;51.628;7.520;2022-10-16T18:12:59;1.60;;;1.37;;
616;SDS011;295;51.628;7.520;2022-10-16T18:15:57;3.00;;;1.80;;
616;SDS011;295;51.628;7.520;2022-10-16T18:18:46;3.73;;;2.33;;
616;SDS011;295;51.628;7.520;2022-10-16T18:21:35;3.10;;;1.80;;
616;SDS011;295;51.628;7.520;2022-10-16T18:24:24;4.57;;;1.70;;
616;SDS011;295;51.628;7.520;2022-10-16T18:27:14;1.83;;;1.20;;